Cambria, Iowa
Current Conditions -  °F | °C
As of 3:35 AM on Thursday 27 Nov 2014 (Local Time) from KCNC Reporting Station
Overcast Overcast  
Wind Chill:   Ceiling: 1000
Heat Index: 21°   Visibility: 9mi
Dew Point: 18°   Wind: 17mph
Humidity: 86%   Direction: 310°NW
Pressure: 30.42"   Gusts: NA
Location:  40.7685°N, 93.3285°W
Report Text: KCNC 270935Z AUTO 31015KT 9SM OVC010 M06/M08 A3042 RMK AO2
Loading
Personal Weather Stations






























Interactive Weather Map New forecast layout! Learn more

10-Day Weather Forecast

Advertisements
Track Severe Weather on mobile